Time;durP1;ratioP1;P1;durP2;ratioP2;P2;SDS_P1;SDS_P2;PMS_P1;PMS_P2;Temp;Humidity;BMP_temperature;BMP_pressure;BME280_temperature;BME280_humidity;BME280_pressure;Samples;Min_cycle;Max_cycle;Signal;HPM_P1;HPM_P2
2024/03/23 00:00:05;;;;;;;9.60;4.60;;;11.10;99.90;;;;;;4993074;28;20543;-68
2024/03/23 00:02:31;;;;;;;10.43;3.83;;;11.10;99.90;;;;;;4993453;28;20030;-68
2024/03/23 00:04:57;;;;;;;6.93;4.07;;;11.10;99.90;;;;;;4998752;28;20053;-67
2024/03/23 00:07:22;;;;;;;14.30;3.95;;;11.10;99.90;;;;;;4993510;28;20033;-67
2024/03/23 00:09:48;;;;;;;9.45;3.38;;;11.00;99.90;;;;;;4992669;28;20474;-68
2024/03/23 00:12:14;;;;;;;14.20;4.95;;;11.10;99.90;;;;;;4992961;28;20034;-66
2024/03/23 00:14:40;;;;;;;6.03;3.80;;;11.10;99.90;;;;;;5007574;28;20096;-66
2024/03/23 00:17:05;;;;;;;7.40;3.33;;;11.00;99.90;;;;;;4990579;28;20045;-66
2024/03/23 00:19:31;;;;;;;6.95;4.05;;;11.00;99.90;;;;;;4992678;28;20053;-69
2024/03/23 00:21:57;;;;;;;12.18;3.55;;;10.90;99.90;;;;;;4992148;28;20042;-67
2024/03/23 00:24:23;;;;;;;7.85;3.80;;;10.80;99.90;;;;;;4992597;28;20073;-67
2024/03/23 00:26:48;;;;;;;13.23;3.53;;;10.80;99.90;;;;;;4992111;28;20049;-67
2024/03/23 00:29:14;;;;;;;6.38;3.95;;;10.80;99.90;;;;;;4992861;28;20030;-67
2024/03/23 00:31:40;;;;;;;7.47;3.97;;;10.90;99.90;;;;;;4991990;28;20045;-67
2024/03/23 00:34:06;;;;;;;8.13;3.67;;;10.90;99.90;;;;;;4999501;28;20144;-67
2024/03/23 00:36:32;;;;;;;10.13;3.65;;;11.00;99.90;;;;;;4991842;28;20534;-67
2024/03/23 00:38:57;;;;;;;11.57;4.78;;;11.00;99.90;;;;;;4992561;28;20026;-67
2024/03/23 00:41:23;;;;;;;5.72;3.53;;;11.00;99.90;;;;;;4992608;28;20065;-67
2024/03/23 00:43:49;;;;;;;8.60;3.35;;;11.00;99.90;;;;;;4991606;28;20045;-67
2024/03/23 00:46:14;;;;;;;11.95;4.75;;;10.90;99.90;;;;;;4991791;28;20038;-67
2024/03/23 00:48:40;;;;;;;7.07;3.67;;;10.90;99.90;;;;;;4992724;28;20384;-67
2024/03/23 00:51:06;;;;;;;8.18;3.80;;;11.00;99.90;;;;;;4992420;28;20030;-67
2024/03/23 00:53:33;;;;;;;8.80;3.80;;;10.90;99.90;;;;;;4993147;28;20029;-67
2024/03/23 00:55:59;;;;;;;7.80;3.78;;;10.90;99.90;;;;;;4993257;28;20053;-67
2024/03/23 00:58:25;;;;;;;5.50;3.25;;;10.90;99.90;;;;;;5007408;28;20030;-67
2024/03/23 01:00:51;;;;;;;10.48;3.80;;;10.90;99.90;;;;;;5006750;28;20105;-67
2024/03/23 01:03:16;;;;;;;6.60;3.97;;;10.90;99.90;;;;;;4993279;28;20038;-67
2024/03/23 01:05:42;;;;;;;6.35;3.95;;;11.00;99.90;;;;;;4992967;28;20030;-67
2024/03/23 01:08:08;;;;;;;14.25;4.85;;;11.00;99.90;;;;;;4992165;28;20876;-67
2024/03/23 01:10:33;;;;;;;13.48;4.03;;;11.00;99.90;;;;;;5006749;28;20044;-67
2024/03/23 01:12:59;;;;;;;13.48;4.53;;;11.00;99.90;;;;;;5007044;28;20030;-67
2024/03/23 01:15:25;;;;;;;10.52;3.90;;;11.00;99.90;;;;;;4991110;28;20030;-67
2024/03/23 01:17:50;;;;;;;10.43;3.83;;;11.00;99.90;;;;;;4992242;28;20041;-68
2024/03/23 01:20:16;;;;;;;8.57;4.05;;;11.00;99.90;;;;;;4991788;28;20065;-68
2024/03/23 01:22:42;;;;;;;10.00;3.65;;;11.00;99.90;;;;;;4990558;28;20526;-68
2024/03/23 01:25:08;;;;;;;7.15;4.22;;;11.10;99.90;;;;;;4990979;28;20140;-68
2024/03/23 01:27:34;;;;;;;6.63;3.47;;;11.10;99.90;;;;;;4991908;28;20117;-68
2024/03/23 01:30:00;;;;;;;9.18;4.35;;;11.20;99.90;;;;;;5006722;28;20048;-68
2024/03/23 01:32:25;;;;;;;9.35;4.07;;;11.30;99.90;;;;;;4992022;28;20038;-68
2024/03/23 01:34:51;;;;;;;10.05;4.20;;;11.40;99.90;;;;;;4998433;28;20113;-67
2024/03/23 01:37:17;;;;;;;11.93;5.28;;;11.40;99.90;;;;;;4991511;28;20062;-68
2024/03/23 01:39:42;;;;;;;9.52;4.15;;;11.40;99.90;;;;;;4991996;28;20116;-68
2024/03/23 01:42:08;;;;;;;8.57;4.40;;;11.30;99.90;;;;;;4991622;28;20088;-68
2024/03/23 01:44:34;;;;;;;7.32;4.30;;;11.40;99.90;;;;;;4991856;28;20022;-68
2024/03/23 01:47:00;;;;;;;10.93;5.15;;;11.40;99.90;;;;;;4991078;28;20030;-68
2024/03/23 01:49:26;;;;;;;9.65;4.45;;;11.40;99.90;;;;;;5007149;28;20101;-68
2024/03/23 01:51:51;;;;;;;10.27;4.43;;;11.40;99.90;;;;;;4991664;28;20399;-68
2024/03/23 01:54:17;;;;;;;9.57;4.72;;;11.50;99.90;;;;;;4991437;28;20045;-68
2024/03/23 01:56:43;;;;;;;8.57;4.40;;;11.50;99.90;;;;;;5010292;28;20038;-68
2024/03/23 01:59:08;;;;;;;10.27;4.50;;;11.50;99.90;;;;;;5010568;28;20035;-68
2024/03/23 02:01:37;;;;;;;6.50;3.63;;;11.60;99.90;;;;;;4995488;28;20066;-68
2024/03/23 02:04:03;;;;;;;10.85;4.75;;;11.50;99.90;;;;;;4999809;28;20034;-68
2024/03/23 02:06:29;;;;;;;8.45;5.05;;;11.50;99.90;;;;;;5002108;28;20034;-68
2024/03/23 02:08:55;;;;;;;8.88;4.93;;;11.60;99.90;;;;;;4994751;28;20390;-68
2024/03/23 02:11:21;;;;;;;8.82;4.68;;;11.60;99.90;;;;;;4993398;28;20031;-68
2024/03/23 02:13:47;;;;;;;12.98;4.40;;;11.70;99.90;;;;;;4994788;28;20034;-68
2024/03/23 02:16:15;;;;;;;9.15;4.45;;;11.60;99.90;;;;;;5008852;28;20114;-68
2024/03/23 02:18:41;;;;;;;6.53;3.53;;;11.70;99.90;;;;;;4995357;28;20450;-68
2024/03/23 02:21:07;;;;;;;12.43;3.97;;;11.80;99.90;;;;;;4994928;28;20030;-68
2024/03/23 02:23:32;;;;;;;9.13;4.97;;;11.90;99.90;;;;;;4994874;28;20026;-68
2024/03/23 02:25:58;;;;;;;7.00;3.35;;;11.90;99.90;;;;;;4994339;28;20038;-68
2024/03/23 02:28:24;;;;;;;8.70;3.88;;;11.90;99.90;;;;;;5009953;28;20033;-68
2024/03/23 02:30:50;;;;;;;11.82;3.83;;;11.90;99.90;;;;;;4994751;28;20548;-68
2024/03/23 02:33:16;;;;;;;5.53;3.60;;;11.90;99.90;;;;;;4996122;28;20100;-67
2024/03/23 02:35:46;;;;;;;7.82;3.63;;;12.00;99.90;;;;;;4998466;28;20482;-67
2024/03/23 02:38:12;;;;;;;5.40;3.28;;;12.00;99.90;;;;;;4995013;28;20042;-68
2024/03/23 02:40:38;;;;;;;7.00;3.70;;;12.00;99.90;;;;;;4995119;28;20049;-68
2024/03/23 02:43:04;;;;;;;5.53;3.10;;;12.10;99.90;;;;;;5009639;28;20038;-68
2024/03/23 02:45:30;;;;;;;9.40;3.85;;;12.00;99.90;;;;;;4994351;28;20034;-68
2024/03/23 02:47:57;;;;;;;6.82;3.33;;;12.10;99.90;;;;;;4995343;28;20050;-68
2024/03/23 02:50:23;;;;;;;9.98;4.10;;;12.00;99.90;;;;;;5009233;28;20022;-68
2024/03/23 02:52:49;;;;;;;6.72;3.67;;;12.00;99.90;;;;;;4994931;28;20042;-68
2024/03/23 02:55:14;;;;;;;7.55;3.60;;;12.00;99.90;;;;;;4991532;28;20035;-68
2024/03/23 02:57:41;;;;;;;8.75;3.67;;;11.90;99.90;;;;;;4994444;28;20042;-68
2024/03/23 03:00:07;;;;;;;7.65;3.40;;;12.00;99.90;;;;;;5009335;28;20383;-68
2024/03/23 03:02:33;;;;;;;6.95;3.15;;;12.00;99.90;;;;;;5009748;28;20483;-68
2024/03/23 03:04:59;;;;;;;7.55;3.67;;;11.90;99.90;;;;;;5000211;28;20050;-68
2024/03/23 03:07:25;;;;;;;10.38;4.28;;;11.90;99.90;;;;;;5009042;28;20101;-68
2024/03/23 03:09:51;;;;;;;7.53;3.65;;;11.90;99.90;;;;;;5009267;28;20117;-68
2024/03/23 03:12:17;;;;;;;7.70;4.10;;;11.90;99.90;;;;;;4994075;28;20030;-68
2024/03/23 03:14:43;;;;;;;9.57;5.00;;;12.00;99.90;;;;;;4993966;28;20038;-68
2024/03/23 03:17:08;;;;;;;10.25;4.35;;;12.10;99.90;;;;;;4993840;28;20050;-68
2024/03/23 03:19:34;;;;;;;11.27;4.47;;;12.30;99.90;;;;;;5009365;28;20022;-68
2024/03/23 03:22:00;;;;;;;8.32;3.97;;;12.40;99.90;;;;;;4993817;28;20044;-68
2024/03/23 03:24:26;;;;;;;8.02;3.78;;;12.60;99.90;;;;;;4994075;28;20379;-68
2024/03/23 03:26:51;;;;;;;11.18;4.30;;;12.70;99.90;;;;;;4993603;28;20080;-68
2024/03/23 03:29:17;;;;;;;7.82;3.97;;;12.90;99.90;;;;;;4994024;28;20785;-68
2024/03/23 03:31:44;;;;;;;9.32;4.93;;;12.90;99.90;;;;;;4994096;28;20040;-67
2024/03/23 03:34:09;;;;;;;11.45;5.18;;;13.00;99.90;;;;;;5016108;28;20033;-67
2024/03/23 03:36:35;;;;;;;13.95;4.63;;;12.90;99.90;;;;;;5008614;28;20050;-67
2024/03/23 03:39:03;;;;;;;14.48;4.63;;;12.80;99.90;;;;;;4994369;28;20442;-67
2024/03/23 03:41:28;;;;;;;9.63;3.50;;;12.90;99.90;;;;;;5007957;28;20468;-67
2024/03/23 03:43:55;;;;;;;9.15;4.13;;;12.80;99.90;;;;;;4993579;28;20030;-67
2024/03/23 03:46:21;;;;;;;8.48;4.65;;;12.70;99.90;;;;;;4992885;28;20046;-67
2024/03/23 03:48:48;;;;;;;7.43;3.42;;;12.70;99.90;;;;;;5008662;28;20499;-67
2024/03/23 03:51:14;;;;;;;11.27;3.92;;;12.70;99.90;;;;;;4991850;28;20031;-67
2024/03/23 03:53:40;;;;;;;9.13;4.03;;;12.70;99.90;;;;;;4993453;28;20057;-69
2024/03/23 03:56:06;;;;;;;10.73;4.03;;;12.60;99.90;;;;;;5007722;28;20042;-67
2024/03/23 03:58:32;;;;;;;8.20;3.65;;;12.50;99.90;;;;;;5008593;28;20110;-67
2024/03/23 04:00:58;;;;;;;9.85;4.07;;;12.50;99.90;;;;;;4993230;28;20041;-67
2024/03/23 04:03:24;;;;;;;9.05;3.72;;;12.40;99.90;;;;;;4995621;28;20051;-67
2024/03/23 04:05:52;;;;;;;8.27;4.50;;;12.40;99.90;;;;;;4995573;28;20368;-68
2024/03/23 04:08:19;;;;;;;12.32;4.28;;;12.40;99.90;;;;;;4976207;28;20391;-67
2024/03/23 04:10:45;;;;;;;13.75;4.90;;;12.50;99.90;;;;;;4993389;28;20174;-67
2024/03/23 04:13:14;;;;;;;13.02;5.30;;;12.40;99.90;;;;;;4993015;28;20030;-67
2024/03/23 04:15:40;;;;;;;12.80;4.47;;;12.50;99.90;;;;;;4992091;28;20513;-67
2024/03/23 04:18:07;;;;;;;15.90;4.95;;;12.40;99.90;;;;;;4993305;28;20394;-67
2024/03/23 04:20:33;;;;;;;17.13;5.20;;;12.40;99.90;;;;;;5007942;28;20038;-67
2024/03/23 04:22:59;;;;;;;17.83;5.50;;;12.30;99.90;;;;;;4992996;28;20490;-67
2024/03/23 04:25:25;;;;;;;10.32;5.45;;;12.30;99.90;;;;;;4992248;28;20026;-67
2024/03/23 04:27:51;;;;;;;11.45;3.92;;;12.30;99.90;;;;;;4993024;28;20027;-67
2024/03/23 04:30:17;;;;;;;9.10;4.53;;;12.40;99.90;;;;;;5007733;28;20077;-67
2024/03/23 04:32:43;;;;;;;8.73;4.03;;;12.40;99.90;;;;;;5008188;28;20101;-67
2024/03/23 04:35:09;;;;;;;12.32;6.05;;;12.40;99.90;;;;;;4998665;28;20034;-67
2024/03/23 04:37:41;;;;;;;14.00;5.10;;;12.40;99.90;;;;;;4992755;28;20081;-67
2024/03/23 04:40:07;;;;;;;10.88;4.97;;;12.40;99.90;;;;;;4992192;28;20399;-67
2024/03/23 04:42:34;;;;;;;12.70;4.97;;;12.40;99.90;;;;;;4992682;28;20034;-68
2024/03/23 04:45:00;;;;;;;15.13;4.43;;;12.40;99.90;;;;;;4991821;28;20038;-68
2024/03/23 04:47:26;;;;;;;9.18;4.30;;;12.40;99.90;;;;;;4992895;28;20460;-68
2024/03/23 04:49:52;;;;;;;9.63;4.57;;;12.40;99.90;;;;;;4992248;28;20033;-68
2024/03/23 04:52:18;;;;;;;10.93;4.80;;;12.40;99.90;;;;;;5007504;28;20505;-68
2024/03/23 04:54:45;;;;;;;8.45;4.03;;;12.40;99.90;;;;;;4992069;28;20038;-68
2024/03/23 04:57:11;;;;;;;13.13;4.78;;;12.40;99.90;;;;;;4992042;28;20375;-68
2024/03/23 04:59:37;;;;;;;8.63;3.83;;;12.40;99.90;;;;;;5007166;28;20034;-68
2024/03/23 05:02:02;;;;;;;5.60;3.28;;;12.40;99.90;;;;;;4992291;28;20042;-68
2024/03/23 05:04:28;;;;;;;8.75;3.25;;;12.30;99.90;;;;;;4999667;28;20030;-68
2024/03/23 05:06:54;;;;;;;7.05;3.05;;;12.30;99.90;;;;;;4991401;28;20113;-68
2024/03/23 05:09:20;;;;;;;5.97;2.78;;;12.30;99.90;;;;;;4992164;28;20035;-68
2024/03/23 05:11:46;;;;;;;4.97;2.65;;;12.20;99.90;;;;;;4992099;28;20034;-67
2024/03/23 05:14:15;;;;;;;4.35;1.63;;;12.10;99.90;;;;;;4992051;28;20042;-68
2024/03/23 05:16:41;;;;;;;8.18;2.03;;;12.10;99.90;;;;;;5006302;28;20038;-68
2024/03/23 05:19:07;;;;;;;4.53;1.73;;;12.00;99.90;;;;;;4992121;28;20053;-68
2024/03/23 05:21:32;;;;;;;2.17;1.10;;;11.90;99.90;;;;;;4990083;28;20034;-68
2024/03/23 05:23:58;;;;;;;4.65;1.92;;;11.80;99.90;;;;;;4991718;28;20403;-68
2024/03/23 05:26:24;;;;;;;3.20;1.67;;;11.70;99.90;;;;;;4991038;28;20026;-68
2024/03/23 05:28:49;;;;;;;2.72;0.95;;;10.90;99.90;;;;;;4992074;28;20034;-68
2024/03/23 05:31:31;;;;;;;1.50;0.70;;;10.20;99.90;;;;;;4991776;28;20022;-68
2024/03/23 05:33:57;;;;;;;;;;;9.70;99.90;;;;;;4999580;28;20086;-68
2024/03/23 05:36:26;;;;;;;3.28;1.98;;;9.50;99.90;;;;;;5006550;28;19914;-67
2024/03/23 05:38:52;;;;;;;3.72;1.77;;;9.30;99.90;;;;;;5007159;28;20042;-67
2024/03/23 05:41:18;;;;;;;2.35;1.33;;;9.20;99.90;;;;;;4991719;28;20027;-67
2024/03/23 05:43:43;;;;;;;3.78;1.50;;;9.20;99.90;;;;;;4991741;28;20573;-67
2024/03/23 05:46:09;;;;;;;3.47;1.40;;;9.10;99.90;;;;;;5005956;28;20089;-67
2024/03/23 05:48:35;;;;;;;2.83;1.40;;;9.10;99.90;;;;;;4991887;28;20038;-67
2024/03/23 05:51:01;;;;;;;3.55;1.35;;;9.10;99.90;;;;;;5006297;28;20114;-68
2024/03/23 05:53:30;;;;;;;2.08;1.00;;;9.10;99.90;;;;;;5006675;28;20037;-67
2024/03/23 05:56:03;;;;;;;1.98;0.90;;;9.10;99.90;;;;;;4991270;28;20049;-67
2024/03/23 05:58:30;;;;;;;1.75;1.08;;;9.10;99.90;;;;;;4988213;28;20095;-67
2024/03/23 06:01:02;;;;;;;1.42;0.65;;;9.00;99.90;;;;;;5003639;28;20030;-69
2024/03/23 06:03:29;;;;;;;1.55;0.93;;;9.00;99.90;;;;;;5009390;28;20057;-66
2024/03/23 06:05:55;;;;;;;1.55;0.57;;;9.00;99.90;;;;;;4994137;28;20113;-67
2024/03/23 06:08:22;;;;;;;1.30;0.75;;;9.00;99.90;;;;;;4991922;28;20511;-67
2024/03/23 06:10:50;;;;;;;3.90;1.48;;;9.00;99.90;;;;;;5002320;28;20557;-67
2024/03/23 06:13:16;;;;;;;3.80;1.30;;;9.00;99.90;;;;;;5000287;28;20580;-67
2024/03/23 06:15:42;;;;;;;2.70;0.85;;;9.00;99.90;;;;;;4996594;28;20043;-68
2024/03/23 06:18:08;;;;;;;4.25;1.50;;;9.00;99.90;;;;;;4990253;28;20045;-68
2024/03/23 06:20:35;;;;;;;4.75;0.88;;;8.90;99.90;;;;;;4992997;28;20026;-67
2024/03/23 06:23:04;;;;;;;1.02;0.70;;;8.90;99.90;;;;;;5006889;28;20034;-69
2024/03/23 06:25:30;;;;;;;0.90;0.40;;;9.00;99.90;;;;;;5006732;28;20030;-68
2024/03/23 06:27:56;;;;;;;1.45;0.60;;;9.00;99.90;;;;;;4992374;28;20105;-68
2024/03/23 06:30:21;;;;;;;0.95;0.60;;;9.00;99.90;;;;;;5006767;28;20034;-68
2024/03/23 06:32:47;;;;;;;1.38;0.30;;;9.00;99.90;;;;;;4992119;28;20031;-68
2024/03/23 06:35:13;;;;;;;2.13;0.70;;;9.10;99.90;;;;;;4991019;28;20061;-68
2024/03/23 06:37:40;;;;;;;1.35;0.43;;;9.10;99.90;;;;;;4991662;28;20034;-68
2024/03/23 06:40:09;;;;;;;0.80;0.20;;;9.10;99.90;;;;;;5005875;28;20076;-68
2024/03/23 06:42:38;;;;;;;0.20;0.20;;;9.10;99.90;;;;;;5007385;28;20034;-68
2024/03/23 06:45:05;;;;;;;0.73;0.35;;;9.10;99.90;;;;;;4993477;28;20112;-68
2024/03/23 06:47:31;;;;;;;0.25;0.20;;;9.10;99.90;;;;;;5009724;28;20022;-68
2024/03/23 06:50:02;;;;;;;3.60;0.35;;;9.00;99.90;;;;;;5008990;28;20463;-68
2024/03/23 06:52:29;;;;;;;0.93;0.20;;;9.00;99.90;;;;;;4994428;28;20430;-68
2024/03/23 06:54:55;;;;;;;0.32;0.20;;;9.00;99.90;;;;;;4993713;28;20038;-68
2024/03/23 06:57:21;;;;;;;0.63;0.20;;;9.00;99.90;;;;;;5009795;28;20069;-68
2024/03/23 06:59:47;;;;;;;0.10;0.10;;;8.90;99.90;;;;;;4993299;28;20536;-68
2024/03/23 07:02:13;;;;;;;0.28;0.20;;;8.90;99.90;;;;;;5006917;28;20042;-68
2024/03/23 07:04:41;;;;;;;0.55;0.32;;;8.90;99.90;;;;;;5016303;28;20026;-68
2024/03/23 07:07:07;;;;;;;0.43;0.38;;;8.90;99.90;;;;;;5008850;28;20030;-67
2024/03/23 07:09:33;;;;;;;0.22;0.20;;;8.90;99.90;;;;;;4994601;28;20030;-68
2024/03/23 07:11:59;;;;;;;0.13;0.13;;;8.90;99.90;;;;;;4992930;28;20026;-66
2024/03/23 07:14:25;;;;;;;0.40;0.10;;;8.80;99.90;;;;;;4994076;28;20137;-67
2024/03/23 07:16:51;;;;;;;0.10;0.10;;;8.80;99.90;;;;;;4993639;28;20530;-67
2024/03/23 07:19:17;;;;;;;0.32;0.20;;;8.80;99.90;;;;;;5008172;28;20488;-68
2024/03/23 07:21:44;;;;;;;0.10;0.10;;;8.70;99.90;;;;;;4994172;28;20129;-67
2024/03/23 07:24:11;;;;;;;0.10;0.10;;;8.70;99.90;;;;;;4992820;28;20052;-66
2024/03/23 07:26:37;;;;;;;0.75;0.75;;;8.80;99.90;;;;;;5008581;28;20065;-67
2024/03/23 07:29:05;;;;;;;3.53;1.10;;;8.90;99.90;;;;;;4994198;28;20027;-67
2024/03/23 07:31:30;;;;;;;1.27;0.50;;;9.20;99.90;;;;;;5008451;28;20022;-68
2024/03/23 07:33:56;;;;;;;2.88;0.57;;;9.30;99.90;;;;;;5015311;28;20500;-67
2024/03/23 07:36:22;;;;;;;0.38;0.30;;;9.30;99.90;;;;;;4992496;28;20038;-68
2024/03/23 07:38:48;;;;;;;0.82;0.35;;;9.40;99.90;;;;;;5009046;28;20034;-68
2024/03/23 07:41:18;;;;;;;0.30;0.10;;;9.30;99.90;;;;;;5008597;28;20038;-67
2024/03/23 07:43:46;;;;;;;0.75;0.35;;;9.00;99.90;;;;;;5008849;28;20122;-68
2024/03/23 07:46:12;;;;;;;1.10;0.50;;;9.00;99.90;;;;;;4986346;28;20046;-69
2024/03/23 07:48:39;;;;;;;4.57;0.25;;;8.90;99.90;;;;;;4976201;28;20089;-68
2024/03/23 07:51:11;;;;;;;2.15;0.30;;;8.90;99.90;;;;;;5004344;28;20483;-69
2024/03/23 07:53:37;;;;;;;0.55;0.40;;;9.00;99.90;;;;;;4984296;28;20475;-69
2024/03/23 07:56:12;;;;;;;0.80;0.55;;;9.00;99.90;;;;;;5003683;28;20038;-67
2024/03/23 07:58:38;;;;;;;0.77;0.40;;;8.90;99.90;;;;;;5008949;28;20038;-69
2024/03/23 08:01:09;;;;;;;0.68;0.22;;;9.00;99.90;;;;;;4993103;28;20034;-69
2024/03/23 08:03:40;;;;;;;0.73;0.47;;;9.10;99.90;;;;;;4997039;28;20092;-69
2024/03/23 08:06:20;;;;;;;0.98;0.30;;;9.30;99.90;;;;;;4995261;28;20129;-68
2024/03/23 08:08:59;;;;;;;0.47;0.35;;;9.30;99.90;;;;;;4993508;28;20034;-68
2024/03/23 08:11:30;;;;;;;1.33;0.60;;;9.30;99.90;;;;;;5006372;28;20122;-69
2024/03/23 08:13:57;;;;;;;2.25;0.63;;;9.20;99.90;;;;;;4993002;28;20026;-68
2024/03/23 08:16:23;;;;;;;4.47;0.70;;;9.00;99.90;;;;;;4990930;28;20474;-69
2024/03/23 08:18:51;;;;;;;2.63;0.43;;;9.10;99.90;;;;;;4991941;28;20450;-69
2024/03/23 08:21:18;;;;;;;7.07;1.05;;;9.20;99.90;;;;;;5007122;28;20364;-69
2024/03/23 08:23:44;;;;;;;1.85;0.88;;;9.30;99.90;;;;;;5006828;28;20027;-69
2024/03/23 08:26:15;;;;;;;1.33;0.50;;;9.40;99.90;;;;;;5006001;28;20040;-69
2024/03/23 08:28:41;;;;;;;3.22;1.67;;;9.50;99.90;;;;;;5007062;28;20065;-69
2024/03/23 08:31:09;;;;;;;3.40;1.33;;;9.80;99.90;;;;;;4991506;28;20104;-69
2024/03/23 08:33:35;;;;;;;5.13;0.82;;;9.90;99.90;;;;;;4995181;28;20034;-67
2024/03/23 08:36:07;;;;;;;7.13;1.10;;;9.90;99.90;;;;;;4994436;28;20045;-68
2024/03/23 08:38:33;;;;;;;0.77;0.60;;;10.00;99.90;;;;;;5007038;28;20394;-68
2024/03/23 08:41:02;;;;;;;4.65;1.15;;;9.90;99.90;;;;;;5007462;28;20129;-69
2024/03/23 08:43:31;;;;;;;2.55;1.35;;;10.00;99.90;;;;;;5006981;28;20034;-68
2024/03/23 08:46:11;;;;;;;3.70;0.68;;;10.00;99.90;;;;;;5006274;28;20030;-69
2024/03/23 08:48:45;;;;;;;1.27;0.82;;;10.00;99.90;;;;;;4992598;28;20031;-69
2024/03/23 08:51:14;;;;;;;4.28;1.00;;;10.10;99.90;;;;;;4991843;28;20072;-69
2024/03/23 08:53:40;;;;;;;4.50;0.90;;;10.20;99.90;;;;;;4992468;28;20034;-69
2024/03/23 08:56:07;;;;;;;2.85;1.30;;;10.40;99.90;;;;;;4991523;28;20768;-69
2024/03/23 08:58:34;;;;;;;4.65;1.42;;;10.60;99.90;;;;;;4992276;28;20034;-67
2024/03/23 09:01:07;;;;;;;3.08;0.93;;;10.70;99.90;;;;;;4990622;28;20089;-67
2024/03/23 09:03:33;;;;;;;1.27;0.52;;;10.60;99.90;;;;;;4995753;28;20053;-67
2024/03/23 09:05:59;;;;;;;1.50;1.25;;;10.50;99.90;;;;;;4993842;28;20491;-67
2024/03/23 09:08:26;;;;;;;2.72;0.82;;;10.50;99.90;;;;;;4992067;28;20041;-69
2024/03/23 09:10:52;;;;;;;2.88;1.25;;;10.50;99.90;;;;;;4991918;28;20353;-67
2024/03/23 09:13:18;;;;;;;3.03;0.98;;;10.60;99.90;;;;;;5007255;28;20081;-67
2024/03/23 09:15:56;;;;;;;6.30;1.08;;;10.60;99.90;;;;;;4989241;28;20038;-67
2024/03/23 09:18:22;;;;;;;3.03;1.15;;;10.50;99.90;;;;;;5006694;28;20030;-68
2024/03/23 09:20:48;;;;;;;0.95;0.68;;;10.50;99.90;;;;;;5006844;28;20576;-67
2024/03/23 09:23:13;;;;;;;4.47;0.80;;;10.50;99.90;;;;;;4991926;28;20038;-67
2024/03/23 09:25:40;;;;;;;3.05;0.93;;;10.40;99.90;;;;;;5006108;28;20112;-67
2024/03/23 09:28:10;;;;;;;8.68;1.13;;;10.50;99.90;;;;;;4991823;28;20030;-68
2024/03/23 09:30:42;;;;;;;3.28;1.08;;;10.40;99.90;;;;;;5006251;28;20048;-68
2024/03/23 09:33:11;;;;;;;3.72;1.20;;;10.40;99.90;;;;;;5006270;28;20697;-68
2024/03/23 09:35:38;;;;;;;3.05;1.45;;;10.50;99.90;;;;;;4996483;28;20092;-68
2024/03/23 09:38:04;;;;;;;5.80;2.05;;;10.60;99.90;;;;;;5007102;28;20438;-68
2024/03/23 09:40:31;;;;;;;4.72;1.10;;;10.50;99.90;;;;;;4991825;28;20475;-68
2024/03/23 09:42:57;;;;;;;5.43;0.90;;;10.50;99.90;;;;;;4991216;28;20042;-68
2024/03/23 09:45:28;;;;;;;5.97;1.10;;;10.70;99.90;;;;;;5005683;28;20589;-68
2024/03/23 09:47:56;;;;;;;11.75;1.63;;;10.40;99.90;;;;;;5006609;28;20019;-68
2024/03/23 09:50:22;;;;;;;2.88;1.38;;;10.30;99.90;;;;;;4991226;28;20487;-68
2024/03/23 09:52:49;;;;;;;8.15;1.10;;;10.10;99.90;;;;;;5006565;28;20038;-68
2024/03/23 09:55:14;;;;;;;2.63;1.65;;;10.10;99.90;;;;;;5005693;28;20129;-68
2024/03/23 09:57:41;;;;;;;2.40;0.98;;;10.00;99.90;;;;;;4991674;28;20124;-68
2024/03/23 10:00:09;;;;;;;3.38;0.88;;;10.00;99.90;;;;;;4991246;28;20426;-68
2024/03/23 10:02:35;;;;;;;3.60;1.30;;;10.10;99.30;;;;;;4991669;28;20093;-68
2024/03/23 10:05:01;;;;;;;7.07;1.70;;;10.30;99.00;;;;;;4997337;28;20493;-69
2024/03/23 10:07:28;;;;;;;6.07;1.42;;;10.30;99.10;;;;;;4991646;28;20105;-69
2024/03/23 10:09:54;;;;;;;3.92;1.33;;;10.40;98.90;;;;;;4990906;28;20037;-69
2024/03/23 10:12:21;;;;;;;3.15;0.82;;;10.50;98.80;;;;;;5006526;28;20188;-70
2024/03/23 10:14:47;;;;;;;5.50;1.63;;;10.40;98.90;;;;;;4991037;28;20037;-68
2024/03/23 10:17:24;;;;;;;6.65;1.17;;;10.50;98.80;;;;;;4993809;28;20053;-68
2024/03/23 10:19:52;;;;;;;1.65;0.65;;;10.70;99.00;;;;;;4989858;28;20109;-68
2024/03/23 10:22:23;;;;;;;8.15;0.88;;;10.60;95.30;;;;;;5010389;28;20038;-68
2024/03/23 10:24:49;;;;;;;3.20;0.93;;;10.80;95.60;;;;;;4994653;28;20029;-68
2024/03/23 10:27:20;;;;;;;2.88;1.00;;;10.90;94.50;;;;;;5009335;28;20053;-68
2024/03/23 10:29:49;;;;;;;4.28;0.60;;;11.00;94.20;;;;;;5009651;28;20025;-69
2024/03/23 10:32:17;;;;;;;6.15;1.00;;;11.10;94.20;;;;;;5008354;28;20445;-68
2024/03/23 10:34:43;;;;;;;5.05;0.73;;;11.20;94.60;;;;;;5002577;28;20049;-72
2024/03/23 10:37:10;;;;;;;3.50;1.17;;;11.30;94.30;;;;;;5008593;28;20030;-72
2024/03/23 10:39:39;;;;;;;3.95;1.38;;;11.00;94.70;;;;;;4994277;28;20037;-72
2024/03/23 10:42:12;;;;;;;4.68;0.95;;;11.10;94.80;;;;;;5009611;28;20022;-71
2024/03/23 10:44:38;;;;;;;1.50;0.80;;;11.20;95.30;;;;;;5009386;28;20037;-72
2024/03/23 10:47:05;;;;;;;1.75;1.02;;;11.30;94.60;;;;;;5008163;28;20049;-72
2024/03/23 10:49:35;;;;;;;8.25;2.38;;;11.70;94.80;;;;;;5009525;28;20022;-72
2024/03/23 10:52:04;;;;;;;4.57;0.85;;;11.90;93.50;;;;;;4994273;28;20100;-74
2024/03/23 10:54:31;;;;;;;9.63;1.40;;;12.40;93.40;;;;;;5010007;28;20041;-72
2024/03/23 10:57:02;;;;;;;2.30;1.25;;;12.80;93.40;;;;;;5008658;28;20050;-72
2024/03/23 10:59:30;;;;;;;0.98;0.30;;;12.70;91.80;;;;;;5009886;28;20088;-72
2024/03/23 11:02:02;;;;;;;9.23;0.88;;;12.60;91.40;;;;;;5009140;28;20491;-77
2024/03/23 11:04:39;;;;;;;4.72;0.80;;;13.00;91.30;;;;;;4994878;28;20121;-68
2024/03/23 11:07:23;;;;;;;8.32;1.58;;;12.80;90.50;;;;;;4993292;28;20108;-68
2024/03/23 11:09:56;;;;;;;0.43;0.30;;;13.00;90.70;;;;;;4993999;28;20581;-68
2024/03/23 11:12:25;;;;;;;5.50;0.95;;;12.80;90.10;;;;;;4994001;28;20030;-69
2024/03/23 11:15:05;;;;;;;3.97;1.58;;;12.40;90.00;;;;;;4993528;28;20035;-67
2024/03/23 11:17:31;;;;;;;3.08;1.35;;;12.50;90.30;;;;;;4994397;28;20053;-67
2024/03/23 11:20:05;;;;;;;3.15;0.70;;;12.50;90.50;;;;;;5008944;28;20065;-68
2024/03/23 11:22:47;;;;;;;3.28;0.68;;;12.80;90.40;;;;;;5000994;28;20058;-68
2024/03/23 11:25:26;;;;;;;2.60;0.80;;;13.00;89.30;;;;;;5008082;28;20026;-68
2024/03/23 11:27:57;;;;;;;1.67;0.93;;;12.60;88.60;;;;;;5008077;28;20103;-68
2024/03/23 11:30:30;;;;;;;7.43;1.25;;;12.40;90.10;;;;;;5007976;28;20022;-68
2024/03/23 11:33:00;;;;;;;6.22;2.50;;;12.20;90.40;;;;;;4994062;28;20037;-69
2024/03/23 11:35:33;;;;;;;3.20;1.40;;;11.90;91.20;;;;;;5015352;28;20697;-68
2024/03/23 11:38:10;;;;;;;4.28;0.88;;;11.70;94.60;;;;;;4994077;28;20034;-69
2024/03/23 11:40:43;;;;;;;0.98;0.52;;;11.30;95.80;;;;;;5008338;28;20042;-69
2024/03/23 11:43:13;;;;;;;2.63;1.40;;;10.80;97.20;;;;;;5008509;28;20037;-69
2024/03/23 11:45:47;;;;;;;1.70;0.65;;;10.20;98.60;;;;;;4979932;28;20080;-69
2024/03/23 11:48:19;;;;;;;3.80;1.58;;;9.70;99.90;;;;;;4993845;28;20478;-67
2024/03/23 11:50:47;;;;;;;1.13;0.60;;;9.30;99.90;;;;;;4993582;28;20428;-66
2024/03/23 11:53:22;;;;;;;3.97;0.75;;;8.90;99.90;;;;;;5008338;28;20038;-67
2024/03/23 11:55:59;;;;;;;1.08;0.60;;;8.40;99.90;;;;;;4992641;28;20042;-67
2024/03/23 11:58:27;;;;;;;2.03;0.77;;;8.00;99.90;;;;;;4993377;28;20110;-67
2024/03/23 12:01:03;;;;;;;3.80;0.52;;;7.90;99.90;;;;;;5008057;28;20141;-67
2024/03/23 12:03:33;;;;;;;0.73;0.52;;;8.10;99.90;;;;;;5010640;28;20022;-69
2024/03/23 12:06:01;;;;;;;1.98;0.77;;;8.40;99.90;;;;;;4995188;28;20041;-68
2024/03/23 12:08:33;;;;;;;1.40;0.45;;;8.70;99.90;;;;;;5007909;28;20022;-68
2024/03/23 12:11:11;;;;;;;2.90;1.77;;;9.10;99.90;;;;;;5007761;28;20034;-69
2024/03/23 12:13:38;;;;;;;1.73;0.70;;;9.40;99.90;;;;;;4985687;28;20448;-71
2024/03/23 12:16:14;;;;;;;6.00;0.70;;;9.60;99.90;;;;;;4990651;28;20487;-70
2024/03/23 12:18:42;;;;;;;4.32;1.05;;;10.20;99.90;;;;;;5007845;28;20157;-70
2024/03/23 12:21:08;;;;;;;3.65;1.30;;;10.10;99.90;;;;;;5007216;28;20147;-68
2024/03/23 12:23:35;;;;;;;1.10;0.88;;;10.00;99.90;;;;;;4992578;28;20026;-68
2024/03/23 12:26:02;;;;;;;10.25;1.73;;;10.30;99.90;;;;;;5006908;28;20022;-68
2024/03/23 12:28:28;;;;;;;2.72;1.10;;;10.00;99.90;;;;;;4992817;28;20802;-68
2024/03/23 12:30:54;;;;;;;3.47;1.15;;;9.60;99.90;;;;;;4992750;28;20038;-68
2024/03/23 12:33:23;;;;;;;2.20;0.82;;;9.60;99.90;;;;;;5009715;28;20157;-68
2024/03/23 12:35:53;;;;;;;2.92;1.10;;;9.40;99.90;;;;;;4996229;28;20038;-68
2024/03/23 12:38:19;;;;;;;1.63;0.88;;;9.60;99.90;;;;;;5006937;28;20033;-68
2024/03/23 12:40:49;;;;;;;3.20;0.68;;;9.60;99.90;;;;;;4991518;28;20364;-68
2024/03/23 12:43:15;;;;;;;7.43;1.88;;;9.40;99.90;;;;;;4992683;28;20030;-69
2024/03/23 12:45:41;;;;;;;4.90;1.30;;;9.40;99.90;;;;;;4991381;28;20529;-68
2024/03/23 12:48:07;;;;;;;1.13;0.50;;;9.50;99.90;;;;;;5007343;28;20026;-68